sensor_id;sensor_type;location;lat;lon;timestamp;P1;durP1;ratioP1;P2;durP2;ratioP2
54983;SDS011;40884;53.562;9.940;2024-03-07T00:00:57;24.53;;;18.10;;
54983;SDS011;40884;53.562;9.940;2024-03-07T00:01:57;26.97;;;18.67;;
54983;SDS011;40884;53.562;9.940;2024-03-07T00:02:57;24.47;;;18.33;;
54983;SDS011;40884;53.562;9.940;2024-03-07T00:03:57;22.20;;;18.40;;
54983;SDS011;40884;53.562;9.940;2024-03-07T00:04:58;22.47;;;17.90;;
54983;SDS011;40884;53.562;9.940;2024-03-07T00:05:58;22.40;;;18.37;;
54983;SDS011;40884;53.562;9.940;2024-03-07T00:06:58;24.07;;;17.87;;
54983;SDS011;40884;53.562;9.940;2024-03-07T00:07:58;24.20;;;18.00;;
54983;SDS011;40884;53.562;9.940;2024-03-07T00:08:58;25.67;;;17.87;;
54983;SDS011;40884;53.562;9.940;2024-03-07T00:09:58;25.10;;;18.53;;
54983;SDS011;40884;53.562;9.940;2024-03-07T00:10:58;24.00;;;17.30;;
54983;SDS011;40884;53.562;9.940;2024-03-07T00:11:58;25.40;;;18.27;;
54983;SDS011;40884;53.562;9.940;2024-03-07T00:12:59;22.77;;;17.30;;
54983;SDS011;40884;53.562;9.940;2024-03-07T00:13:59;23.50;;;17.63;;
54983;SDS011;40884;53.562;9.940;2024-03-07T00:14:59;22.10;;;16.47;;
54983;SDS011;40884;53.562;9.940;2024-03-07T00:15:59;26.00;;;17.87;;
54983;SDS011;40884;53.562;9.940;2024-03-07T00:16:59;24.83;;;17.93;;
54983;SDS011;40884;53.562;9.940;2024-03-07T00:17:59;24.47;;;17.37;;
54983;SDS011;40884;53.562;9.940;2024-03-07T00:19:00;24.40;;;17.83;;
54983;SDS011;40884;53.562;9.940;2024-03-07T00:20:00;22.67;;;16.40;;
54983;SDS011;40884;53.562;9.940;2024-03-07T00:21:00;19.37;;;15.60;;
54983;SDS011;40884;53.562;9.940;2024-03-07T00:22:00;25.03;;;16.83;;
54983;SDS011;40884;53.562;9.940;2024-03-07T00:23:01;23.67;;;16.37;;
54983;SDS011;40884;53.562;9.940;2024-03-07T00:24:01;26.40;;;17.47;;
54983;SDS011;40884;53.562;9.940;2024-03-07T00:25:01;24.20;;;16.27;;
54983;SDS011;40884;53.562;9.940;2024-03-07T00:26:02;21.77;;;16.13;;
54983;SDS011;40884;53.562;9.940;2024-03-07T00:27:02;22.90;;;15.80;;
54983;SDS011;40884;53.562;9.940;2024-03-07T00:28:02;21.50;;;15.73;;
54983;SDS011;40884;53.562;9.940;2024-03-07T00:29:02;24.77;;;16.37;;
54983;SDS011;40884;53.562;9.940;2024-03-07T00:30:03;22.67;;;15.93;;
54983;SDS011;40884;53.562;9.940;2024-03-07T00:31:03;22.77;;;17.00;;
54983;SDS011;40884;53.562;9.940;2024-03-07T00:32:03;24.63;;;16.53;;
54983;SDS011;40884;53.562;9.940;2024-03-07T00:33:04;23.50;;;16.40;;
54983;SDS011;40884;53.562;9.940;2024-03-07T00:34:04;23.10;;;16.13;;
54983;SDS011;40884;53.562;9.940;2024-03-07T00:35:04;21.33;;;15.40;;
54983;SDS011;40884;53.562;9.940;2024-03-07T00:36:04;24.80;;;16.63;;
54983;SDS011;40884;53.562;9.940;2024-03-07T00:37:05;22.03;;;15.47;;
54983;SDS011;40884;53.562;9.940;2024-03-07T00:38:05;22.67;;;15.33;;
54983;SDS011;40884;53.562;9.940;2024-03-07T00:39:05;20.53;;;14.87;;
54983;SDS011;40884;53.562;9.940;2024-03-07T00:40:05;21.83;;;15.57;;
54983;SDS011;40884;53.562;9.940;2024-03-07T00:41:05;21.13;;;15.37;;
54983;SDS011;40884;53.562;9.940;2024-03-07T00:42:05;19.87;;;14.43;;
54983;SDS011;40884;53.562;9.940;2024-03-07T00:43:06;24.00;;;15.67;;
54983;SDS011;40884;53.562;9.940;2024-03-07T00:44:06;24.77;;;16.23;;
54983;SDS011;40884;53.562;9.940;2024-03-07T00:45:06;25.63;;;15.90;;
54983;SDS011;40884;53.562;9.940;2024-03-07T00:46:06;23.23;;;15.30;;
54983;SDS011;40884;53.562;9.940;2024-03-07T00:47:07;21.97;;;14.60;;
54983;SDS011;40884;53.562;9.940;2024-03-07T00:48:07;19.27;;;14.17;;
54983;SDS011;40884;53.562;9.940;2024-03-07T00:49:07;25.43;;;17.83;;
54983;SDS011;40884;53.562;9.940;2024-03-07T00:50:07;32.93;;;24.57;;
54983;SDS011;40884;53.562;9.940;2024-03-07T00:51:07;31.43;;;21.37;;
54983;SDS011;40884;53.562;9.940;2024-03-07T00:52:07;22.00;;;15.13;;
54983;SDS011;40884;53.562;9.940;2024-03-07T00:53:08;19.43;;;14.70;;
54983;SDS011;40884;53.562;9.940;2024-03-07T00:54:08;24.17;;;15.30;;
54983;SDS011;40884;53.562;9.940;2024-03-07T00:55:08;20.20;;;14.23;;
54983;SDS011;40884;53.562;9.940;2024-03-07T00:56:08;20.93;;;13.97;;
54983;SDS011;40884;53.562;9.940;2024-03-07T00:57:08;24.50;;;14.30;;
54983;SDS011;40884;53.562;9.940;2024-03-07T00:58:08;25.07;;;14.43;;
54983;SDS011;40884;53.562;9.940;2024-03-07T00:59:08;24.03;;;15.83;;
54983;SDS011;40884;53.562;9.940;2024-03-07T01:00:09;20.27;;;14.27;;
54983;SDS011;40884;53.562;9.940;2024-03-07T01:01:09;23.77;;;14.93;;
54983;SDS011;40884;53.562;9.940;2024-03-07T01:02:09;20.97;;;14.87;;
54983;SDS011;40884;53.562;9.940;2024-03-07T01:03:09;24.73;;;16.67;;
54983;SDS011;40884;53.562;9.940;2024-03-07T01:04:09;23.00;;;14.97;;
54983;SDS011;40884;53.562;9.940;2024-03-07T01:05:09;25.63;;;16.03;;
54983;SDS011;40884;53.562;9.940;2024-03-07T01:06:10;23.50;;;16.00;;
54983;SDS011;40884;53.562;9.940;2024-03-07T01:07:10;24.90;;;15.33;;
54983;SDS011;40884;53.562;9.940;2024-03-07T01:08:10;26.03;;;15.37;;
54983;SDS011;40884;53.562;9.940;2024-03-07T01:09:10;22.73;;;15.23;;
54983;SDS011;40884;53.562;9.940;2024-03-07T01:10:11;22.83;;;14.67;;
54983;SDS011;40884;53.562;9.940;2024-03-07T01:11:11;25.13;;;14.70;;
54983;SDS011;40884;53.562;9.940;2024-03-07T01:12:11;23.77;;;14.83;;
54983;SDS011;40884;53.562;9.940;2024-03-07T01:13:11;24.00;;;15.17;;
54983;SDS011;40884;53.562;9.940;2024-03-07T01:14:11;25.40;;;15.57;;
54983;SDS011;40884;53.562;9.940;2024-03-07T01:15:11;24.63;;;15.60;;
54983;SDS011;40884;53.562;9.940;2024-03-07T01:16:11;25.53;;;15.07;;
54983;SDS011;40884;53.562;9.940;2024-03-07T01:17:11;24.83;;;14.87;;
54983;SDS011;40884;53.562;9.940;2024-03-07T01:18:11;24.77;;;15.30;;
54983;SDS011;40884;53.562;9.940;2024-03-07T01:19:12;24.47;;;15.23;;
54983;SDS011;40884;53.562;9.940;2024-03-07T01:20:12;24.53;;;15.37;;
54983;SDS011;40884;53.562;9.940;2024-03-07T01:21:12;24.63;;;15.57;;
54983;SDS011;40884;53.562;9.940;2024-03-07T01:22:12;24.67;;;16.30;;
54983;SDS011;40884;53.562;9.940;2024-03-07T01:23:12;22.23;;;15.43;;
54983;SDS011;40884;53.562;9.940;2024-03-07T01:24:12;28.50;;;16.17;;
54983;SDS011;40884;53.562;9.940;2024-03-07T01:25:13;24.77;;;16.73;;
54983;SDS011;40884;53.562;9.940;2024-03-07T01:26:13;22.77;;;16.10;;
54983;SDS011;40884;53.562;9.940;2024-03-07T01:27:13;27.17;;;15.10;;
54983;SDS011;40884;53.562;9.940;2024-03-07T01:28:13;22.20;;;13.77;;
54983;SDS011;40884;53.562;9.940;2024-03-07T01:29:13;24.23;;;15.67;;
54983;SDS011;40884;53.562;9.940;2024-03-07T01:30:13;28.87;;;15.97;;
54983;SDS011;40884;53.562;9.940;2024-03-07T01:31:13;27.03;;;15.97;;
54983;SDS011;40884;53.562;9.940;2024-03-07T01:32:14;29.43;;;16.23;;
54983;SDS011;40884;53.562;9.940;2024-03-07T01:33:14;26.70;;;16.23;;
54983;SDS011;40884;53.562;9.940;2024-03-07T01:34:14;23.00;;;15.43;;
54983;SDS011;40884;53.562;9.940;2024-03-07T01:35:14;28.30;;;16.27;;
54983;SDS011;40884;53.562;9.940;2024-03-07T01:36:14;24.17;;;14.80;;
54983;SDS011;40884;53.562;9.940;2024-03-07T01:37:14;23.93;;;15.73;;
54983;SDS011;40884;53.562;9.940;2024-03-07T01:38:14;26.40;;;15.83;;
54983;SDS011;40884;53.562;9.940;2024-03-07T01:39:15;26.10;;;16.47;;
54983;SDS011;40884;53.562;9.940;2024-03-07T01:40:15;28.10;;;15.93;;
54983;SDS011;40884;53.562;9.940;2024-03-07T01:41:15;26.97;;;16.60;;
54983;SDS011;40884;53.562;9.940;2024-03-07T01:42:15;26.40;;;17.27;;
54983;SDS011;40884;53.562;9.940;2024-03-07T01:43:16;28.87;;;16.33;;
54983;SDS011;40884;53.562;9.940;2024-03-07T01:44:16;26.70;;;17.30;;
54983;SDS011;40884;53.562;9.940;2024-03-07T01:45:16;26.23;;;17.30;;
54983;SDS011;40884;53.562;9.940;2024-03-07T01:46:16;29.27;;;17.30;;
54983;SDS011;40884;53.562;9.940;2024-03-07T01:47:17;29.50;;;17.50;;
54983;SDS011;40884;53.562;9.940;2024-03-07T01:48:19;25.60;;;16.73;;
54983;SDS011;40884;53.562;9.940;2024-03-07T01:49:22;30.50;;;18.90;;
54983;SDS011;40884;53.562;9.940;2024-03-07T01:50:22;29.13;;;18.60;;
54983;SDS011;40884;53.562;9.940;2024-03-07T01:51:23;27.53;;;18.07;;
54983;SDS011;40884;53.562;9.940;2024-03-07T01:52:23;28.50;;;19.53;;
54983;SDS011;40884;53.562;9.940;2024-03-07T01:53:23;31.17;;;18.93;;
54983;SDS011;40884;53.562;9.940;2024-03-07T01:54:25;33.77;;;19.40;;
54983;SDS011;40884;53.562;9.940;2024-03-07T01:55:25;26.23;;;17.73;;
54983;SDS011;40884;53.562;9.940;2024-03-07T01:56:26;30.50;;;19.80;;
54983;SDS011;40884;53.562;9.940;2024-03-07T01:57:26;30.57;;;19.37;;
54983;SDS011;40884;53.562;9.940;2024-03-07T01:58:26;31.97;;;19.13;;
54983;SDS011;40884;53.562;9.940;2024-03-07T01:59:27;26.77;;;20.10;;
54983;SDS011;40884;53.562;9.940;2024-03-07T02:00:28;28.67;;;19.87;;
54983;SDS011;40884;53.562;9.940;2024-03-07T02:01:28;30.80;;;19.20;;
54983;SDS011;40884;53.562;9.940;2024-03-07T02:02:28;30.23;;;20.77;;
54983;SDS011;40884;53.562;9.940;2024-03-07T02:03:28;32.80;;;21.93;;
54983;SDS011;40884;53.562;9.940;2024-03-07T02:04:29;29.93;;;19.47;;
54983;SDS011;40884;53.562;9.940;2024-03-07T02:05:29;28.40;;;19.60;;
54983;SDS011;40884;53.562;9.940;2024-03-07T02:06:29;29.27;;;19.97;;
54983;SDS011;40884;53.562;9.940;2024-03-07T02:07:29;28.33;;;19.23;;
54983;SDS011;40884;53.562;9.940;2024-03-07T02:08:29;29.13;;;19.30;;
54983;SDS011;40884;53.562;9.940;2024-03-07T02:09:29;30.43;;;19.40;;
54983;SDS011;40884;53.562;9.940;2024-03-07T02:10:29;29.40;;;18.63;;
54983;SDS011;40884;53.562;9.940;2024-03-07T02:11:29;29.37;;;18.93;;
54983;SDS011;40884;53.562;9.940;2024-03-07T02:12:30;28.03;;;20.10;;
54983;SDS011;40884;53.562;9.940;2024-03-07T02:13:30;30.87;;;19.60;;
54983;SDS011;40884;53.562;9.940;2024-03-07T02:14:30;29.70;;;19.67;;
54983;SDS011;40884;53.562;9.940;2024-03-07T02:15:30;32.20;;;19.83;;
54983;SDS011;40884;53.562;9.940;2024-03-07T02:16:30;29.13;;;19.87;;
54983;SDS011;40884;53.562;9.940;2024-03-07T02:17:31;31.40;;;20.40;;
54983;SDS011;40884;53.562;9.940;2024-03-07T02:18:31;28.30;;;19.80;;
54983;SDS011;40884;53.562;9.940;2024-03-07T02:19:31;31.37;;;20.10;;
54983;SDS011;40884;53.562;9.940;2024-03-07T02:20:32;28.97;;;19.40;;
54983;SDS011;40884;53.562;9.940;2024-03-07T02:21:32;30.97;;;19.67;;
54983;SDS011;40884;53.562;9.940;2024-03-07T02:22:32;29.43;;;18.63;;
54983;SDS011;40884;53.562;9.940;2024-03-07T02:23:32;29.47;;;19.60;;
54983;SDS011;40884;53.562;9.940;2024-03-07T02:24:32;29.43;;;19.33;;
54983;SDS011;40884;53.562;9.940;2024-03-07T02:25:32;28.80;;;19.63;;
54983;SDS011;40884;53.562;9.940;2024-03-07T02:26:32;27.70;;;18.53;;
54983;SDS011;40884;53.562;9.940;2024-03-07T02:27:32;27.33;;;18.80;;
54983;SDS011;40884;53.562;9.940;2024-03-07T02:28:32;26.93;;;18.70;;
54983;SDS011;40884;53.562;9.940;2024-03-07T02:29:33;27.13;;;19.57;;
54983;SDS011;40884;53.562;9.940;2024-03-07T02:30:33;28.27;;;19.43;;
54983;SDS011;40884;53.562;9.940;2024-03-07T02:31:33;31.83;;;19.80;;
54983;SDS011;40884;53.562;9.940;2024-03-07T02:32:33;27.57;;;19.27;;
54983;SDS011;40884;53.562;9.940;2024-03-07T02:33:33;28.70;;;18.80;;
54983;SDS011;40884;53.562;9.940;2024-03-07T02:34:34;32.40;;;18.70;;
54983;SDS011;40884;53.562;9.940;2024-03-07T02:35:34;27.17;;;18.37;;
54983;SDS011;40884;53.562;9.940;2024-03-07T02:36:34;27.10;;;18.53;;
54983;SDS011;40884;53.562;9.940;2024-03-07T02:37:34;26.77;;;18.20;;
54983;SDS011;40884;53.562;9.940;2024-03-07T02:38:34;24.97;;;16.73;;
54983;SDS011;40884;53.562;9.940;2024-03-07T02:39:35;26.80;;;18.17;;
54983;SDS011;40884;53.562;9.940;2024-03-07T02:40:35;26.58;;;17.38;;
54983;SDS011;40884;53.562;9.940;2024-03-07T02:41:35;24.13;;;17.17;;
54983;SDS011;40884;53.562;9.940;2024-03-07T02:42:35;32.00;;;18.43;;
54983;SDS011;40884;53.562;9.940;2024-03-07T02:43:36;25.17;;;17.03;;
54983;SDS011;40884;53.562;9.940;2024-03-07T02:44:36;25.63;;;17.20;;
54983;SDS011;40884;53.562;9.940;2024-03-07T02:45:36;25.47;;;16.97;;
54983;SDS011;40884;53.562;9.940;2024-03-07T02:46:36;29.67;;;18.77;;
54983;SDS011;40884;53.562;9.940;2024-03-07T02:47:36;25.47;;;17.67;;
54983;SDS011;40884;53.562;9.940;2024-03-07T02:48:36;28.33;;;18.20;;
54983;SDS011;40884;53.562;9.940;2024-03-07T02:49:36;27.40;;;17.17;;
54983;SDS011;40884;53.562;9.940;2024-03-07T02:50:36;28.47;;;17.37;;
54983;SDS011;40884;53.562;9.940;2024-03-07T02:51:37;27.77;;;17.10;;
54983;SDS011;40884;53.562;9.940;2024-03-07T02:52:37;27.73;;;15.57;;
54983;SDS011;40884;53.562;9.940;2024-03-07T02:53:37;25.57;;;16.53;;
54983;SDS011;40884;53.562;9.940;2024-03-07T02:54:37;25.53;;;16.30;;
54983;SDS011;40884;53.562;9.940;2024-03-07T02:55:37;31.47;;;17.83;;
54983;SDS011;40884;53.562;9.940;2024-03-07T02:56:37;25.37;;;17.47;;
54983;SDS011;40884;53.562;9.940;2024-03-07T02:57:38;25.33;;;16.83;;
54983;SDS011;40884;53.562;9.940;2024-03-07T02:58:38;24.63;;;16.67;;
54983;SDS011;40884;53.562;9.940;2024-03-07T02:59:38;22.50;;;15.57;;
54983;SDS011;40884;53.562;9.940;2024-03-07T03:00:38;26.40;;;15.93;;
54983;SDS011;40884;53.562;9.940;2024-03-07T03:01:38;23.50;;;15.53;;
54983;SDS011;40884;53.562;9.940;2024-03-07T03:02:38;23.00;;;15.37;;
54983;SDS011;40884;53.562;9.940;2024-03-07T03:03:38;24.03;;;16.00;;
54983;SDS011;40884;53.562;9.940;2024-03-07T03:04:38;23.17;;;16.00;;
54983;SDS011;40884;53.562;9.940;2024-03-07T03:05:38;28.77;;;16.47;;
54983;SDS011;40884;53.562;9.940;2024-03-07T03:06:38;27.37;;;15.80;;
54983;SDS011;40884;53.562;9.940;2024-03-07T03:07:39;21.70;;;15.03;;
54983;SDS011;40884;53.562;9.940;2024-03-07T03:08:39;23.57;;;15.50;;
54983;SDS011;40884;53.562;9.940;2024-03-07T03:09:39;22.37;;;14.97;;
54983;SDS011;40884;53.562;9.940;2024-03-07T03:10:39;22.17;;;15.17;;
54983;SDS011;40884;53.562;9.940;2024-03-07T03:11:39;22.40;;;14.83;;
54983;SDS011;40884;53.562;9.940;2024-03-07T03:12:39;21.37;;;14.50;;
54983;SDS011;40884;53.562;9.940;2024-03-07T03:13:40;22.87;;;15.50;;
54983;SDS011;40884;53.562;9.940;2024-03-07T03:14:40;23.27;;;14.97;;
54983;SDS011;40884;53.562;9.940;2024-03-07T03:15:40;22.80;;;14.57;;
54983;SDS011;40884;53.562;9.940;2024-03-07T03:16:41;20.20;;;14.03;;
54983;SDS011;40884;53.562;9.940;2024-03-07T03:17:41;20.80;;;13.50;;
54983;SDS011;40884;53.562;9.940;2024-03-07T03:18:41;22.43;;;14.37;;
54983;SDS011;40884;53.562;9.940;2024-03-07T03:19:41;20.53;;;13.93;;
54983;SDS011;40884;53.562;9.940;2024-03-07T03:20:41;24.53;;;14.90;;
54983;SDS011;40884;53.562;9.940;2024-03-07T03:21:41;22.43;;;14.47;;
54983;SDS011;40884;53.562;9.940;2024-03-07T03:22:41;22.63;;;15.00;;
54983;SDS011;40884;53.562;9.940;2024-03-07T03:23:42;20.37;;;13.67;;
54983;SDS011;40884;53.562;9.940;2024-03-07T03:24:42;20.27;;;14.90;;
54983;SDS011;40884;53.562;9.940;2024-03-07T03:25:42;21.30;;;14.63;;
54983;SDS011;40884;53.562;9.940;2024-03-07T03:26:42;20.37;;;14.07;;
54983;SDS011;40884;53.562;9.940;2024-03-07T03:27:42;24.63;;;14.97;;
54983;SDS011;40884;53.562;9.940;2024-03-07T03:28:42;22.90;;;14.87;;
54983;SDS011;40884;53.562;9.940;2024-03-07T03:29:42;22.60;;;14.50;;
54983;SDS011;40884;53.562;9.940;2024-03-07T03:30:43;20.20;;;14.00;;
54983;SDS011;40884;53.562;9.940;2024-03-07T03:31:43;19.30;;;14.40;;
54983;SDS011;40884;53.562;9.940;2024-03-07T03:32:43;21.60;;;14.80;;
54983;SDS011;40884;53.562;9.940;2024-03-07T03:33:43;20.93;;;13.87;;
54983;SDS011;40884;53.562;9.940;2024-03-07T03:34:43;24.30;;;15.23;;
54983;SDS011;40884;53.562;9.940;2024-03-07T03:35:43;21.53;;;13.83;;
54983;SDS011;40884;53.562;9.940;2024-03-07T03:36:43;20.80;;;13.57;;
54983;SDS011;40884;53.562;9.940;2024-03-07T03:37:43;19.90;;;13.70;;
54983;SDS011;40884;53.562;9.940;2024-03-07T03:38:43;21.40;;;14.40;;
54983;SDS011;40884;53.562;9.940;2024-03-07T03:39:44;23.03;;;14.17;;
54983;SDS011;40884;53.562;9.940;2024-03-07T03:40:44;20.03;;;14.17;;
54983;SDS011;40884;53.562;9.940;2024-03-07T03:41:44;19.80;;;13.93;;
54983;SDS011;40884;53.562;9.940;2024-03-07T03:42:44;18.63;;;13.90;;
54983;SDS011;40884;53.562;9.940;2024-03-07T03:43:44;18.50;;;12.97;;
54983;SDS011;40884;53.562;9.940;2024-03-07T03:44:44;21.03;;;14.43;;
54983;SDS011;40884;53.562;9.940;2024-03-07T03:45:44;21.70;;;14.23;;
54983;SDS011;40884;53.562;9.940;2024-03-07T03:46:44;21.43;;;14.20;;
54983;SDS011;40884;53.562;9.940;2024-03-07T03:47:45;20.27;;;14.00;;
54983;SDS011;40884;53.562;9.940;2024-03-07T03:48:45;21.83;;;13.80;;
54983;SDS011;40884;53.562;9.940;2024-03-07T03:49:45;18.53;;;14.00;;
54983;SDS011;40884;53.562;9.940;2024-03-07T03:50:45;20.20;;;12.83;;
54983;SDS011;40884;53.562;9.940;2024-03-07T03:51:45;21.63;;;13.03;;
54983;SDS011;40884;53.562;9.940;2024-03-07T03:52:45;22.30;;;13.17;;
54983;SDS011;40884;53.562;9.940;2024-03-07T03:53:46;22.40;;;13.97;;
54983;SDS011;40884;53.562;9.940;2024-03-07T03:54:46;21.07;;;12.80;;
54983;SDS011;40884;53.562;9.940;2024-03-07T03:55:46;20.20;;;13.90;;
54983;SDS011;40884;53.562;9.940;2024-03-07T03:56:46;23.23;;;13.30;;
54983;SDS011;40884;53.562;9.940;2024-03-07T03:57:46;20.73;;;13.40;;
54983;SDS011;40884;53.562;9.940;2024-03-07T03:58:46;20.37;;;13.07;;
54983;SDS011;40884;53.562;9.940;2024-03-07T03:59:46;21.10;;;12.37;;
54983;SDS011;40884;53.562;9.940;2024-03-07T04:00:47;20.13;;;13.00;;
54983;SDS011;40884;53.562;9.940;2024-03-07T04:01:47;22.10;;;13.53;;
54983;SDS011;40884;53.562;9.940;2024-03-07T04:02:47;19.60;;;13.33;;
54983;SDS011;40884;53.562;9.940;2024-03-07T04:03:47;20.57;;;13.47;;
54983;SDS011;40884;53.562;9.940;2024-03-07T04:04:48;19.07;;;13.67;;
54983;SDS011;40884;53.562;9.940;2024-03-07T04:05:48;20.93;;;12.77;;
54983;SDS011;40884;53.562;9.940;2024-03-07T04:06:48;18.77;;;12.33;;
54983;SDS011;40884;53.562;9.940;2024-03-07T04:07:48;20.60;;;13.03;;
54983;SDS011;40884;53.562;9.940;2024-03-07T04:08:48;22.23;;;13.83;;
54983;SDS011;40884;53.562;9.940;2024-03-07T04:09:48;19.60;;;13.90;;
54983;SDS011;40884;53.562;9.940;2024-03-07T04:10:48;19.20;;;13.47;;
54983;SDS011;40884;53.562;9.940;2024-03-07T04:11:48;20.43;;;13.43;;
54983;SDS011;40884;53.562;9.940;2024-03-07T04:12:49;21.53;;;14.40;;
54983;SDS011;40884;53.562;9.940;2024-03-07T04:13:49;23.20;;;14.57;;
54983;SDS011;40884;53.562;9.940;2024-03-07T04:14:49;21.07;;;14.20;;
54983;SDS011;40884;53.562;9.940;2024-03-07T04:15:49;20.40;;;13.90;;
54983;SDS011;40884;53.562;9.940;2024-03-07T04:16:49;23.40;;;14.33;;
54983;SDS011;40884;53.562;9.940;2024-03-07T04:17:49;18.00;;;13.00;;
54983;SDS011;40884;53.562;9.940;2024-03-07T04:18:49;22.53;;;13.63;;
54983;SDS011;40884;53.562;9.940;2024-03-07T04:19:49;21.83;;;13.60;;
54983;SDS011;40884;53.562;9.940;2024-03-07T04:20:49;19.13;;;13.00;;
54983;SDS011;40884;53.562;9.940;2024-03-07T04:21:50;21.50;;;14.37;;
54983;SDS011;40884;53.562;9.940;2024-03-07T04:22:50;21.60;;;14.70;;
54983;SDS011;40884;53.562;9.940;2024-03-07T04:23:50;19.90;;;12.63;;
54983;SDS011;40884;53.562;9.940;2024-03-07T04:24:50;21.43;;;13.87;;
54983;SDS011;40884;53.562;9.940;2024-03-07T04:25:50;18.80;;;13.20;;
54983;SDS011;40884;53.562;9.940;2024-03-07T04:26:50;21.07;;;13.40;;
54983;SDS011;40884;53.562;9.940;2024-03-07T04:27:50;25.23;;;14.30;;
54983;SDS011;40884;53.562;9.940;2024-03-07T04:28:51;21.83;;;13.87;;
54983;SDS011;40884;53.562;9.940;2024-03-07T04:29:51;20.33;;;13.57;;
54983;SDS011;40884;53.562;9.940;2024-03-07T04:30:51;18.40;;;13.60;;
54983;SDS011;40884;53.562;9.940;2024-03-07T04:31:51;21.70;;;13.40;;
54983;SDS011;40884;53.562;9.940;2024-03-07T04:32:51;20.50;;;14.10;;
54983;SDS011;40884;53.562;9.940;2024-03-07T04:33:52;20.50;;;14.07;;
54983;SDS011;40884;53.562;9.940;2024-03-07T04:34:52;19.43;;;14.77;;
54983;SDS011;40884;53.562;9.940;2024-03-07T04:35:52;22.73;;;13.77;;
54983;SDS011;40884;53.562;9.940;2024-03-07T04:36:52;19.50;;;14.30;;
54983;SDS011;40884;53.562;9.940;2024-03-07T04:37:52;18.30;;;14.10;;
54983;SDS011;40884;53.562;9.940;2024-03-07T04:38:52;19.00;;;12.77;;
54983;SDS011;40884;53.562;9.940;2024-03-07T04:39:53;17.50;;;12.33;;
54983;SDS011;40884;53.562;9.940;2024-03-07T04:40:53;19.93;;;14.03;;
54983;SDS011;40884;53.562;9.940;2024-03-07T04:41:53;20.13;;;13.03;;
54983;SDS011;40884;53.562;9.940;2024-03-07T04:42:54;20.73;;;13.63;;
54983;SDS011;40884;53.562;9.940;2024-03-07T04:43:54;19.60;;;13.37;;
54983;SDS011;40884;53.562;9.940;2024-03-07T04:44:54;20.23;;;14.30;;
54983;SDS011;40884;53.562;9.940;2024-03-07T04:45:54;20.07;;;15.27;;
54983;SDS011;40884;53.562;9.940;2024-03-07T04:46:54;19.00;;;13.43;;
54983;SDS011;40884;53.562;9.940;2024-03-07T04:47:54;20.23;;;14.20;;
54983;SDS011;40884;53.562;9.940;2024-03-07T04:48:54;20.93;;;14.83;;
54983;SDS011;40884;53.562;9.940;2024-03-07T04:49:54;19.87;;;13.87;;
54983;SDS011;40884;53.562;9.940;2024-03-07T04:50:55;18.07;;;14.10;;
54983;SDS011;40884;53.562;9.940;2024-03-07T04:51:55;22.70;;;14.07;;
54983;SDS011;40884;53.562;9.940;2024-03-07T04:52:56;20.20;;;14.17;;
54983;SDS011;40884;53.562;9.940;2024-03-07T04:53:56;22.00;;;14.23;;
54983;SDS011;40884;53.562;9.940;2024-03-07T04:54:56;19.17;;;14.03;;
54983;SDS011;40884;53.562;9.940;2024-03-07T04:55:56;19.90;;;14.43;;
54983;SDS011;40884;53.562;9.940;2024-03-07T04:56:56;20.63;;;13.10;;
54983;SDS011;40884;53.562;9.940;2024-03-07T04:57:56;22.30;;;14.57;;
54983;SDS011;40884;53.562;9.940;2024-03-07T04:58:56;19.60;;;14.63;;
54983;SDS011;40884;53.562;9.940;2024-03-07T04:59:57;19.70;;;14.30;;
54983;SDS011;40884;53.562;9.940;2024-03-07T05:00:57;22.70;;;15.43;;
54983;SDS011;40884;53.562;9.940;2024-03-07T05:01:57;20.83;;;14.80;;
54983;SDS011;40884;53.562;9.940;2024-03-07T05:02:57;18.57;;;13.83;;
54983;SDS011;40884;53.562;9.940;2024-03-07T05:03:57;20.47;;;13.67;;
54983;SDS011;40884;53.562;9.940;2024-03-07T05:04:57;19.27;;;14.27;;
54983;SDS011;40884;53.562;9.940;2024-03-07T05:05:57;21.13;;;14.97;;
54983;SDS011;40884;53.562;9.940;2024-03-07T05:06:57;22.63;;;15.10;;
54983;SDS011;40884;53.562;9.940;2024-03-07T05:07:57;19.80;;;14.47;;
54983;SDS011;40884;53.562;9.940;2024-03-07T05:08:58;20.70;;;14.73;;
54983;SDS011;40884;53.562;9.940;2024-03-07T05:09:58;19.20;;;14.73;;
54983;SDS011;40884;53.562;9.940;2024-03-07T05:10:58;18.70;;;14.67;;
54983;SDS011;40884;53.562;9.940;2024-03-07T05:11:58;21.03;;;14.33;;
54983;SDS011;40884;53.562;9.940;2024-03-07T05:12:58;18.70;;;14.83;;
54983;SDS011;40884;53.562;9.940;2024-03-07T05:13:58;22.13;;;15.17;;
54983;SDS011;40884;53.562;9.940;2024-03-07T05:14:59;19.97;;;15.43;;
54983;SDS011;40884;53.562;9.940;2024-03-07T05:15:59;24.63;;;15.20;;
54983;SDS011;40884;53.562;9.940;2024-03-07T05:16:59;21.43;;;15.80;;
54983;SDS011;40884;53.562;9.940;2024-03-07T05:17:59;20.23;;;15.40;;
54983;SDS011;40884;53.562;9.940;2024-03-07T05:18:59;19.87;;;14.50;;
54983;SDS011;40884;53.562;9.940;2024-03-07T05:19:59;22.23;;;15.70;;
54983;SDS011;40884;53.562;9.940;2024-03-07T05:20:59;18.83;;;14.77;;
54983;SDS011;40884;53.562;9.940;2024-03-07T05:22:00;18.60;;;13.50;;
54983;SDS011;40884;53.562;9.940;2024-03-07T05:23:00;20.17;;;14.77;;
54983;SDS011;40884;53.562;9.940;2024-03-07T05:24:00;19.50;;;14.87;;
54983;SDS011;40884;53.562;9.940;2024-03-07T05:25:00;21.97;;;14.57;;
54983;SDS011;40884;53.562;9.940;2024-03-07T05:26:00;21.17;;;14.63;;
54983;SDS011;40884;53.562;9.940;2024-03-07T05:27:01;18.77;;;14.50;;
54983;SDS011;40884;53.562;9.940;2024-03-07T05:28:01;22.23;;;14.07;;
54983;SDS011;40884;53.562;9.940;2024-03-07T05:29:01;20.90;;;14.17;;
54983;SDS011;40884;53.562;9.940;2024-03-07T05:30:02;18.47;;;14.33;;
54983;SDS011;40884;53.562;9.940;2024-03-07T05:31:03;21.52;;;14.57;;
54983;SDS011;40884;53.562;9.940;2024-03-07T05:32:22;19.57;;;13.63;;
54983;SDS011;40884;53.562;9.940;2024-03-07T05:33:22;18.50;;;13.95;;
54983;SDS011;40884;53.562;9.940;2024-03-07T05:34:22;18.33;;;13.63;;
54983;SDS011;40884;53.562;9.940;2024-03-07T05:35:22;21.27;;;14.00;;
54983;SDS011;40884;53.562;9.940;2024-03-07T05:36:23;22.63;;;13.87;;
54983;SDS011;40884;53.562;9.940;2024-03-07T05:37:23;21.40;;;13.67;;
54983;SDS011;40884;53.562;9.940;2024-03-07T05:38:23;19.50;;;13.97;;
54983;SDS011;40884;53.562;9.940;2024-03-07T05:39:23;16.23;;;13.20;;
54983;SDS011;40884;53.562;9.940;2024-03-07T05:40:23;17.33;;;13.67;;
54983;SDS011;40884;53.562;9.940;2024-03-07T05:41:23;18.00;;;13.60;;
54983;SDS011;40884;53.562;9.940;2024-03-07T05:42:23;16.90;;;13.90;;
54983;SDS011;40884;53.562;9.940;2024-03-07T05:43:23;18.23;;;13.17;;
54983;SDS011;40884;53.562;9.940;2024-03-07T05:44:23;18.70;;;13.50;;
54983;SDS011;40884;53.562;9.940;2024-03-07T05:45:24;15.60;;;12.77;;
54983;SDS011;40884;53.562;9.940;2024-03-07T05:46:24;19.50;;;12.57;;
54983;SDS011;40884;53.562;9.940;2024-03-07T05:47:24;15.40;;;12.63;;
54983;SDS011;40884;53.562;9.940;2024-03-07T05:48:24;18.23;;;12.63;;
54983;SDS011;40884;53.562;9.940;2024-03-07T05:49:24;16.10;;;12.50;;
54983;SDS011;40884;53.562;9.940;2024-03-07T05:50:24;16.53;;;12.37;;
54983;SDS011;40884;53.562;9.940;2024-03-07T05:51:24;16.77;;;12.73;;
54983;SDS011;40884;53.562;9.940;2024-03-07T05:52:24;18.47;;;13.07;;